sensor_id;sensor_type;location;lat;lon;timestamp;P1;durP1;ratioP1;P2;durP2;ratioP2
54263;SDS011;40178;53.042;6.406;2022-07-05T00:00:08;6.28;;;3.53;;
54263;SDS011;40178;53.042;6.406;2022-07-05T00:02:34;7.28;;;3.67;;
54263;SDS011;40178;53.042;6.406;2022-07-05T00:05:00;5.80;;;3.28;;
54263;SDS011;40178;53.042;6.406;2022-07-05T00:07:26;5.35;;;3.25;;
54263;SDS011;40178;53.042;6.406;2022-07-05T00:09:53;5.15;;;3.00;;
54263;SDS011;40178;53.042;6.406;2022-07-05T00:12:20;6.22;;;3.75;;
54263;SDS011;40178;53.042;6.406;2022-07-05T00:14:47;8.00;;;3.25;;
54263;SDS011;40178;53.042;6.406;2022-07-05T00:17:13;6.60;;;3.80;;
54263;SDS011;40178;53.042;6.406;2022-07-05T00:19:39;5.80;;;3.42;;
54263;SDS011;40178;53.042;6.406;2022-07-05T00:22:05;6.90;;;3.40;;
54263;SDS011;40178;53.042;6.406;2022-07-05T00:24:31;6.03;;;3.17;;
54263;SDS011;40178;53.042;6.406;2022-07-05T00:26:57;7.22;;;3.90;;
54263;SDS011;40178;53.042;6.406;2022-07-05T00:29:23;6.82;;;3.90;;
54263;SDS011;40178;53.042;6.406;2022-07-05T00:31:49;6.53;;;3.50;;
54263;SDS011;40178;53.042;6.406;2022-07-05T00:34:15;8.60;;;3.70;;
54263;SDS011;40178;53.042;6.406;2022-07-05T00:36:41;8.23;;;4.18;;
54263;SDS011;40178;53.042;6.406;2022-07-05T00:39:08;5.82;;;3.80;;
54263;SDS011;40178;53.042;6.406;2022-07-05T00:41:34;6.82;;;4.15;;
54263;SDS011;40178;53.042;6.406;2022-07-05T00:44:04;6.22;;;3.90;;
54263;SDS011;40178;53.042;6.406;2022-07-05T00:46:30;7.50;;;4.38;;
54263;SDS011;40178;53.042;6.406;2022-07-05T00:48:59;5.95;;;3.60;;
54263;SDS011;40178;53.042;6.406;2022-07-05T00:51:26;6.75;;;3.13;;
54263;SDS011;40178;53.042;6.406;2022-07-05T00:53:54;5.45;;;3.53;;
54263;SDS011;40178;53.042;6.406;2022-07-05T00:56:20;6.05;;;3.58;;
54263;SDS011;40178;53.042;6.406;2022-07-05T00:58:47;5.30;;;3.30;;
54263;SDS011;40178;53.042;6.406;2022-07-05T01:01:13;6.10;;;3.88;;
54263;SDS011;40178;53.042;6.406;2022-07-05T01:03:40;6.45;;;3.83;;
54263;SDS011;40178;53.042;6.406;2022-07-05T01:06:06;6.53;;;4.07;;
54263;SDS011;40178;53.042;6.406;2022-07-05T01:08:34;5.75;;;3.58;;
54263;SDS011;40178;53.042;6.406;2022-07-05T01:11:01;5.85;;;3.97;;
54263;SDS011;40178;53.042;6.406;2022-07-05T01:13:27;6.25;;;3.80;;
54263;SDS011;40178;53.042;6.406;2022-07-05T01:15:53;7.93;;;3.97;;
54263;SDS011;40178;53.042;6.406;2022-07-05T01:18:20;8.40;;;3.97;;
54263;SDS011;40178;53.042;6.406;2022-07-05T01:20:47;6.70;;;4.05;;
54263;SDS011;40178;53.042;6.406;2022-07-05T01:23:13;6.93;;;4.22;;
54263;SDS011;40178;53.042;6.406;2022-07-05T01:25:40;6.28;;;3.95;;
54263;SDS011;40178;53.042;6.406;2022-07-05T01:28:06;7.30;;;3.90;;
54263;SDS011;40178;53.042;6.406;2022-07-05T01:30:33;7.78;;;4.38;;
54263;SDS011;40178;53.042;6.406;2022-07-05T01:32:59;7.15;;;3.70;;
54263;SDS011;40178;53.042;6.406;2022-07-05T01:35:25;6.32;;;4.13;;
54263;SDS011;40178;53.042;6.406;2022-07-05T01:37:51;6.88;;;3.65;;
54263;SDS011;40178;53.042;6.406;2022-07-05T01:40:18;5.95;;;3.78;;
54263;SDS011;40178;53.042;6.406;2022-07-05T01:42:45;6.07;;;4.10;;
54263;SDS011;40178;53.042;6.406;2022-07-05T01:45:11;5.43;;;3.50;;
54263;SDS011;40178;53.042;6.406;2022-07-05T01:47:43;6.30;;;3.85;;
54263;SDS011;40178;53.042;6.406;2022-07-05T01:50:10;6.80;;;4.30;;
54263;SDS011;40178;53.042;6.406;2022-07-05T01:52:38;8.20;;;4.15;;
54263;SDS011;40178;53.042;6.406;2022-07-05T01:55:06;8.57;;;4.40;;
54263;SDS011;40178;53.042;6.406;2022-07-05T01:57:33;7.53;;;4.20;;
54263;SDS011;40178;53.042;6.406;2022-07-05T01:59:59;6.28;;;3.90;;
54263;SDS011;40178;53.042;6.406;2022-07-05T02:02:24;7.70;;;4.43;;
54263;SDS011;40178;53.042;6.406;2022-07-05T02:04:50;8.50;;;4.45;;
54263;SDS011;40178;53.042;6.406;2022-07-05T02:07:16;7.13;;;4.25;;
54263;SDS011;40178;53.042;6.406;2022-07-05T02:09:42;8.60;;;4.72;;
54263;SDS011;40178;53.042;6.406;2022-07-05T02:12:08;7.25;;;4.18;;
54263;SDS011;40178;53.042;6.406;2022-07-05T02:14:34;7.10;;;4.40;;
54263;SDS011;40178;53.042;6.406;2022-07-05T02:17:00;9.18;;;4.63;;
54263;SDS011;40178;53.042;6.406;2022-07-05T02:19:26;7.03;;;3.95;;
54263;SDS011;40178;53.042;6.406;2022-07-05T02:21:53;6.63;;;4.47;;
54263;SDS011;40178;53.042;6.406;2022-07-05T02:24:19;8.57;;;4.15;;
54263;SDS011;40178;53.042;6.406;2022-07-05T02:26:45;6.50;;;3.55;;
54263;SDS011;40178;53.042;6.406;2022-07-05T02:29:11;6.03;;;3.85;;
54263;SDS011;40178;53.042;6.406;2022-07-05T02:31:37;7.72;;;4.00;;
54263;SDS011;40178;53.042;6.406;2022-07-05T02:34:03;8.30;;;4.82;;
54263;SDS011;40178;53.042;6.406;2022-07-05T02:36:29;5.90;;;3.65;;
54263;SDS011;40178;53.042;6.406;2022-07-05T02:38:55;6.00;;;4.03;;
54263;SDS011;40178;53.042;6.406;2022-07-05T02:41:21;6.40;;;4.20;;
54263;SDS011;40178;53.042;6.406;2022-07-05T02:43:47;7.05;;;4.50;;
54263;SDS011;40178;53.042;6.406;2022-07-05T02:46:13;7.75;;;4.45;;
54263;SDS011;40178;53.042;6.406;2022-07-05T02:48:39;9.75;;;4.75;;
54263;SDS011;40178;53.042;6.406;2022-07-05T02:51:06;6.55;;;4.35;;
54263;SDS011;40178;53.042;6.406;2022-07-05T02:53:32;7.22;;;4.25;;
54263;SDS011;40178;53.042;6.406;2022-07-05T02:55:59;6.25;;;4.10;;
54263;SDS011;40178;53.042;6.406;2022-07-05T02:58:26;7.85;;;5.20;;
54263;SDS011;40178;53.042;6.406;2022-07-05T03:00:52;8.45;;;4.45;;
54263;SDS011;40178;53.042;6.406;2022-07-05T03:03:18;7.13;;;4.75;;
54263;SDS011;40178;53.042;6.406;2022-07-05T03:05:44;6.50;;;4.35;;
54263;SDS011;40178;53.042;6.406;2022-07-05T03:08:10;6.93;;;4.05;;
54263;SDS011;40178;53.042;6.406;2022-07-05T03:10:36;8.65;;;4.60;;
54263;SDS011;40178;53.042;6.406;2022-07-05T03:13:04;8.00;;;4.32;;
54263;SDS011;40178;53.042;6.406;2022-07-05T03:15:30;8.55;;;4.72;;
54263;SDS011;40178;53.042;6.406;2022-07-05T03:17:56;7.20;;;4.72;;
54263;SDS011;40178;53.042;6.406;2022-07-05T03:20:22;7.72;;;4.75;;
54263;SDS011;40178;53.042;6.406;2022-07-05T03:22:48;7.80;;;5.13;;
54263;SDS011;40178;53.042;6.406;2022-07-05T03:25:14;9.57;;;5.43;;
54263;SDS011;40178;53.042;6.406;2022-07-05T03:27:40;10.23;;;4.70;;
54263;SDS011;40178;53.042;6.406;2022-07-05T03:30:06;7.78;;;4.32;;
54263;SDS011;40178;53.042;6.406;2022-07-05T03:32:32;9.40;;;4.85;;
54263;SDS011;40178;53.042;6.406;2022-07-05T03:34:58;9.20;;;5.57;;
54263;SDS011;40178;53.042;6.406;2022-07-05T03:37:24;9.25;;;5.05;;
54263;SDS011;40178;53.042;6.406;2022-07-05T03:39:50;7.90;;;5.60;;
54263;SDS011;40178;53.042;6.406;2022-07-05T03:42:16;7.78;;;5.38;;
54263;SDS011;40178;53.042;6.406;2022-07-05T03:44:42;8.20;;;5.30;;
54263;SDS011;40178;53.042;6.406;2022-07-05T03:47:08;7.43;;;4.97;;
54263;SDS011;40178;53.042;6.406;2022-07-05T03:49:34;9.35;;;5.13;;
54263;SDS011;40178;53.042;6.406;2022-07-05T03:52:00;10.43;;;5.22;;
54263;SDS011;40178;53.042;6.406;2022-07-05T03:54:26;9.43;;;5.55;;
54263;SDS011;40178;53.042;6.406;2022-07-05T03:56:52;8.38;;;5.40;;
54263;SDS011;40178;53.042;6.406;2022-07-05T03:59:18;7.68;;;5.40;;
54263;SDS011;40178;53.042;6.406;2022-07-05T04:01:44;8.65;;;5.38;;
54263;SDS011;40178;53.042;6.406;2022-07-05T04:04:10;8.27;;;5.45;;
54263;SDS011;40178;53.042;6.406;2022-07-05T04:06:36;7.50;;;5.57;;
54263;SDS011;40178;53.042;6.406;2022-07-05T04:09:02;8.40;;;5.25;;
54263;SDS011;40178;53.042;6.406;2022-07-05T04:11:28;9.85;;;5.85;;
54263;SDS011;40178;53.042;6.406;2022-07-05T04:13:54;9.70;;;5.60;;
54263;SDS011;40178;53.042;6.406;2022-07-05T04:16:20;8.88;;;6.18;;
54263;SDS011;40178;53.042;6.406;2022-07-05T04:18:47;7.88;;;5.57;;
54263;SDS011;40178;53.042;6.406;2022-07-05T04:21:13;8.60;;;5.55;;
54263;SDS011;40178;53.042;6.406;2022-07-05T04:23:39;9.43;;;5.80;;
54263;SDS011;40178;53.042;6.406;2022-07-05T04:26:05;8.05;;;5.63;;
54263;SDS011;40178;53.042;6.406;2022-07-05T04:28:31;9.25;;;6.00;;
54263;SDS011;40178;53.042;6.406;2022-07-05T04:30:57;10.65;;;6.35;;
54263;SDS011;40178;53.042;6.406;2022-07-05T04:33:23;10.02;;;6.75;;
54263;SDS011;40178;53.042;6.406;2022-07-05T04:35:49;9.63;;;6.38;;
54263;SDS011;40178;53.042;6.406;2022-07-05T04:38:15;11.02;;;6.38;;
54263;SDS011;40178;53.042;6.406;2022-07-05T04:40:41;8.65;;;5.97;;
54263;SDS011;40178;53.042;6.406;2022-07-05T04:43:07;10.13;;;6.47;;
54263;SDS011;40178;53.042;6.406;2022-07-05T04:45:33;9.10;;;6.43;;
54263;SDS011;40178;53.042;6.406;2022-07-05T04:47:59;8.75;;;6.15;;
54263;SDS011;40178;53.042;6.406;2022-07-05T04:50:25;10.30;;;6.38;;
54263;SDS011;40178;53.042;6.406;2022-07-05T04:52:52;9.68;;;6.50;;
54263;SDS011;40178;53.042;6.406;2022-07-05T04:55:18;10.45;;;7.13;;
54263;SDS011;40178;53.042;6.406;2022-07-05T04:57:44;9.77;;;6.95;;
54263;SDS011;40178;53.042;6.406;2022-07-05T05:00:11;10.77;;;6.68;;
54263;SDS011;40178;53.042;6.406;2022-07-05T05:02:38;8.90;;;6.35;;
54263;SDS011;40178;53.042;6.406;2022-07-05T05:05:04;11.05;;;7.15;;
54263;SDS011;40178;53.042;6.406;2022-07-05T05:07:30;8.82;;;6.82;;
54263;SDS011;40178;53.042;6.406;2022-07-05T05:09:57;11.73;;;7.45;;
54263;SDS011;40178;53.042;6.406;2022-07-05T05:12:23;10.00;;;6.80;;
54263;SDS011;40178;53.042;6.406;2022-07-05T05:14:50;11.35;;;7.07;;
54263;SDS011;40178;53.042;6.406;2022-07-05T05:17:16;10.35;;;6.35;;
54263;SDS011;40178;53.042;6.406;2022-07-05T05:19:42;8.35;;;6.05;;
54263;SDS011;40178;53.042;6.406;2022-07-05T05:22:09;9.73;;;5.95;;
54263;SDS011;40178;53.042;6.406;2022-07-05T05:24:35;9.40;;;5.63;;
54263;SDS011;40178;53.042;6.406;2022-07-05T05:27:01;8.63;;;5.70;;
54263;SDS011;40178;53.042;6.406;2022-07-05T05:29:27;8.80;;;5.68;;
54263;SDS011;40178;53.042;6.406;2022-07-05T05:31:53;8.15;;;5.63;;
54263;SDS011;40178;53.042;6.406;2022-07-05T05:34:19;9.57;;;6.18;;
54263;SDS011;40178;53.042;6.406;2022-07-05T05:36:45;7.78;;;5.20;;
54263;SDS011;40178;53.042;6.406;2022-07-05T05:39:12;10.98;;;5.70;;
54263;SDS011;40178;53.042;6.406;2022-07-05T05:41:38;7.38;;;5.28;;
54263;SDS011;40178;53.042;6.406;2022-07-05T05:44:04;8.75;;;5.50;;
54263;SDS011;40178;53.042;6.406;2022-07-05T05:46:30;9.50;;;5.38;;
54263;SDS011;40178;53.042;6.406;2022-07-05T05:48:56;7.55;;;4.93;;
54263;SDS011;40178;53.042;6.406;2022-07-05T05:51:23;8.07;;;4.75;;
54263;SDS011;40178;53.042;6.406;2022-07-05T05:53:49;7.50;;;4.78;;
54263;SDS011;40178;53.042;6.406;2022-07-05T05:56:15;7.50;;;4.30;;
54263;SDS011;40178;53.042;6.406;2022-07-05T05:58:42;6.70;;;4.22;;
54263;SDS011;40178;53.042;6.406;2022-07-05T06:01:08;6.15;;;4.20;;
54263;SDS011;40178;53.042;6.406;2022-07-05T06:03:34;7.20;;;4.35;;
54263;SDS011;40178;53.042;6.406;2022-07-05T06:06:00;6.63;;;4.57;;
54263;SDS011;40178;53.042;6.406;2022-07-05T06:08:26;6.47;;;4.10;;
54263;SDS011;40178;53.042;6.406;2022-07-05T06:10:52;6.45;;;4.05;;
54263;SDS011;40178;53.042;6.406;2022-07-05T06:13:18;6.55;;;4.20;;
54263;SDS011;40178;53.042;6.406;2022-07-05T06:15:44;6.93;;;3.65;;
54263;SDS011;40178;53.042;6.406;2022-07-05T06:18:11;5.68;;;3.60;;
54263;SDS011;40178;53.042;6.406;2022-07-05T06:20:38;6.40;;;3.67;;
54263;SDS011;40178;53.042;6.406;2022-07-05T06:23:04;6.80;;;3.40;;
54263;SDS011;40178;53.042;6.406;2022-07-05T06:25:31;6.15;;;3.83;;
54263;SDS011;40178;53.042;6.406;2022-07-05T06:27:58;6.75;;;3.20;;
54263;SDS011;40178;53.042;6.406;2022-07-05T06:30:25;6.18;;;3.92;;
54263;SDS011;40178;53.042;6.406;2022-07-05T06:32:52;7.95;;;3.55;;
54263;SDS011;40178;53.042;6.406;2022-07-05T06:35:18;5.10;;;3.10;;
54263;SDS011;40178;53.042;6.406;2022-07-05T06:37:46;5.63;;;3.35;;
54263;SDS011;40178;53.042;6.406;2022-07-05T06:40:13;6.32;;;2.88;;
54263;SDS011;40178;53.042;6.406;2022-07-05T06:42:40;6.35;;;2.60;;
54263;SDS011;40178;53.042;6.406;2022-07-05T06:45:06;7.50;;;2.47;;
54263;SDS011;40178;53.042;6.406;2022-07-05T06:47:32;6.57;;;2.50;;
54263;SDS011;40178;53.042;6.406;2022-07-05T06:49:59;6.40;;;2.20;;
54263;SDS011;40178;53.042;6.406;2022-07-05T06:52:25;8.68;;;1.95;;
54263;SDS011;40178;53.042;6.406;2022-07-05T06:54:51;4.35;;;1.85;;
54263;SDS011;40178;53.042;6.406;2022-07-05T06:57:20;4.97;;;1.60;;
54263;SDS011;40178;53.042;6.406;2022-07-05T06:59:47;4.30;;;1.65;;
54263;SDS011;40178;53.042;6.406;2022-07-05T07:02:13;4.00;;;1.50;;
54263;SDS011;40178;53.042;6.406;2022-07-05T07:04:39;3.13;;;1.35;;
54263;SDS011;40178;53.042;6.406;2022-07-05T07:07:05;4.20;;;1.30;;
54263;SDS011;40178;53.042;6.406;2022-07-05T07:10:09;4.43;;;1.08;;
54263;SDS011;40178;53.042;6.406;2022-07-05T07:12:35;4.10;;;1.08;;
54263;SDS011;40178;53.042;6.406;2022-07-05T07:15:01;3.92;;;1.08;;
54263;SDS011;40178;53.042;6.406;2022-07-05T07:17:27;4.22;;;0.95;;
54263;SDS011;40178;53.042;6.406;2022-07-05T07:19:53;3.83;;;0.90;;
54263;SDS011;40178;53.042;6.406;2022-07-05T07:22:19;5.38;;;0.73;;
54263;SDS011;40178;53.042;6.406;2022-07-05T07:24:45;3.72;;;0.68;;
54263;SDS011;40178;53.042;6.406;2022-07-05T07:27:11;2.55;;;0.55;;
54263;SDS011;40178;53.042;6.406;2022-07-05T07:29:38;2.17;;;0.68;;
54263;SDS011;40178;53.042;6.406;2022-07-05T07:32:05;1.70;;;0.60;;
54263;SDS011;40178;53.042;6.406;2022-07-05T07:34:32;2.53;;;0.73;;
54263;SDS011;40178;53.042;6.406;2022-07-05T07:36:58;5.18;;;0.60;;
54263;SDS011;40178;53.042;6.406;2022-07-05T07:39:25;2.65;;;0.60;;
54263;SDS011;40178;53.042;6.406;2022-07-05T07:41:51;2.75;;;0.98;;
54263;SDS011;40178;53.042;6.406;2022-07-05T07:44:17;2.35;;;0.50;;
54263;SDS011;40178;53.042;6.406;2022-07-05T07:46:43;2.50;;;0.60;;
54263;SDS011;40178;53.042;6.406;2022-07-05T07:49:10;5.10;;;0.77;;
54263;SDS011;40178;53.042;6.406;2022-07-05T07:51:37;3.28;;;0.50;;
54263;SDS011;40178;53.042;6.406;2022-07-05T07:54:03;3.13;;;0.63;;
54263;SDS011;40178;53.042;6.406;2022-07-05T07:56:29;2.25;;;0.50;;
54263;SDS011;40178;53.042;6.406;2022-07-05T07:58:55;3.22;;;0.50;;
54263;SDS011;40178;53.042;6.406;2022-07-05T08:01:21;2.53;;;0.50;;
54263;SDS011;40178;53.042;6.406;2022-07-05T08:03:47;1.58;;;0.47;;
54263;SDS011;40178;53.042;6.406;2022-07-05T08:06:13;3.22;;;0.70;;
54263;SDS011;40178;53.042;6.406;2022-07-05T08:08:41;1.95;;;0.50;;
54263;SDS011;40178;53.042;6.406;2022-07-05T08:11:09;2.63;;;0.75;;
54263;SDS011;40178;53.042;6.406;2022-07-05T08:13:35;3.78;;;0.75;;
54263;SDS011;40178;53.042;6.406;2022-07-05T08:16:02;3.67;;;0.65;;
54263;SDS011;40178;53.042;6.406;2022-07-05T08:18:28;3.15;;;0.60;;
54263;SDS011;40178;53.042;6.406;2022-07-05T08:21:12;1.42;;;0.40;;
54263;SDS011;40178;53.042;6.406;2022-07-05T08:24:01;2.75;;;0.65;;
54263;SDS011;40178;53.042;6.406;2022-07-05T08:26:27;1.65;;;0.52;;
54263;SDS011;40178;53.042;6.406;2022-07-05T08:28:55;2.78;;;0.73;;
54263;SDS011;40178;53.042;6.406;2022-07-05T08:31:23;2.88;;;0.50;;
54263;SDS011;40178;53.042;6.406;2022-07-05T08:33:50;3.38;;;0.70;;
54263;SDS011;40178;53.042;6.406;2022-07-05T08:36:16;2.80;;;0.60;;
54263;SDS011;40178;53.042;6.406;2022-07-05T08:38:42;2.00;;;0.60;;
54263;SDS011;40178;53.042;6.406;2022-07-05T08:41:08;2.47;;;0.70;;
54263;SDS011;40178;53.042;6.406;2022-07-05T08:43:35;2.97;;;0.60;;
54263;SDS011;40178;53.042;6.406;2022-07-05T08:46:02;3.08;;;0.60;;
54263;SDS011;40178;53.042;6.406;2022-07-05T08:48:31;4.68;;;0.50;;
54263;SDS011;40178;53.042;6.406;2022-07-05T08:50:58;2.20;;;0.65;;
54263;SDS011;40178;53.042;6.406;2022-07-05T08:53:25;5.28;;;0.50;;
54263;SDS011;40178;53.042;6.406;2022-07-05T08:55:51;2.00;;;0.47;;
54263;SDS011;40178;53.042;6.406;2022-07-05T08:58:17;2.97;;;0.63;;
54263;SDS011;40178;53.042;6.406;2022-07-05T09:00:43;4.97;;;0.70;;
54263;SDS011;40178;53.042;6.406;2022-07-05T09:03:09;4.07;;;0.75;;
54263;SDS011;40178;53.042;6.406;2022-07-05T09:05:42;1.88;;;0.40;;
54263;SDS011;40178;53.042;6.406;2022-07-05T09:08:09;3.60;;;0.70;;
54263;SDS011;40178;53.042;6.406;2022-07-05T09:10:37;2.28;;;0.52;;
54263;SDS011;40178;53.042;6.406;2022-07-05T09:13:03;4.07;;;0.80;;
54263;SDS011;40178;53.042;6.406;2022-07-05T09:15:29;2.45;;;0.57;;
54263;SDS011;40178;53.042;6.406;2022-07-05T09:17:55;2.30;;;0.57;;
54263;SDS011;40178;53.042;6.406;2022-07-05T09:20:21;3.78;;;0.80;;
54263;SDS011;40178;53.042;6.406;2022-07-05T09:22:54;2.92;;;0.80;;
54263;SDS011;40178;53.042;6.406;2022-07-05T09:25:24;3.42;;;0.90;;
54263;SDS011;40178;53.042;6.406;2022-07-05T09:27:53;2.85;;;0.77;;
54263;SDS011;40178;53.042;6.406;2022-07-05T09:30:36;4.15;;;0.65;;
54263;SDS011;40178;53.042;6.406;2022-07-05T09:35:32;2.13;;;0.57;;
54263;SDS011;40178;53.042;6.406;2022-07-05T09:37:59;2.03;;;0.40;;
54263;SDS011;40178;53.042;6.406;2022-07-05T09:40:28;2.80;;;0.70;;
54263;SDS011;40178;53.042;6.406;2022-07-05T09:43:09;2.60;;;0.73;;
54263;SDS011;40178;53.042;6.406;2022-07-05T09:45:36;2.45;;;0.60;;
54263;SDS011;40178;53.042;6.406;2022-07-05T09:57:32;3.03;;;0.93;;
54263;SDS011;40178;53.042;6.406;2022-07-05T10:03:02;5.80;;;0.80;;
54263;SDS011;40178;53.042;6.406;2022-07-05T10:06:09;3.05;;;0.70;;
54263;SDS011;40178;53.042;6.406;2022-07-05T10:11:40;4.05;;;0.80;;
54263;SDS011;40178;53.042;6.406;2022-07-05T10:17:30;4.28;;;0.65;;
54263;SDS011;40178;53.042;6.406;2022-07-05T10:20:01;3.35;;;0.82;;
54263;SDS011;40178;53.042;6.406;2022-07-05T10:22:28;3.13;;;0.70;;
54263;SDS011;40178;53.042;6.406;2022-07-05T10:24:55;2.67;;;0.65;;
54263;SDS011;40178;53.042;6.406;2022-07-05T10:27:21;3.50;;;0.77;;
54263;SDS011;40178;53.042;6.406;2022-07-05T10:29:48;1.95;;;0.70;;
54263;SDS011;40178;53.042;6.406;2022-07-05T10:32:15;2.20;;;0.60;;
54263;SDS011;40178;53.042;6.406;2022-07-05T10:34:42;2.75;;;0.70;;
54263;SDS011;40178;53.042;6.406;2022-07-05T10:37:11;3.63;;;0.80;;
54263;SDS011;40178;53.042;6.406;2022-07-05T10:39:37;2.40;;;0.57;;
54263;SDS011;40178;53.042;6.406;2022-07-05T10:42:04;4.68;;;0.80;;
54263;SDS011;40178;53.042;6.406;2022-07-05T10:44:31;2.28;;;0.50;;
54263;SDS011;40178;53.042;6.406;2022-07-05T10:47:08;4.88;;;0.63;;
54263;SDS011;40178;53.042;6.406;2022-07-05T10:49:38;2.97;;;0.60;;
54263;SDS011;40178;53.042;6.406;2022-07-05T10:52:04;3.85;;;0.63;;
54263;SDS011;40178;53.042;6.406;2022-07-05T10:54:30;2.25;;;0.55;;
54263;SDS011;40178;53.042;6.406;2022-07-05T10:57:42;1.85;;;0.73;;
54263;SDS011;40178;53.042;6.406;2022-07-05T11:00:03;2.35;;;0.68;;
54263;SDS011;40178;53.042;6.406;2022-07-05T11:02:30;1.08;;;0.50;;
54263;SDS011;40178;53.042;6.406;2022-07-05T11:04:56;1.52;;;0.40;;
54263;SDS011;40178;53.042;6.406;2022-07-05T11:10:07;1.77;;;0.40;;
54263;SDS011;40178;53.042;6.406;2022-07-05T11:12:36;2.15;;;0.50;;
54263;SDS011;40178;53.042;6.406;2022-07-05T11:15:05;1.80;;;0.50;;
54263;SDS011;40178;53.042;6.406;2022-07-05T11:17:33;2.90;;;0.40;;
54263;SDS011;40178;53.042;6.406;2022-07-05T11:20:35;4.15;;;0.60;;
54263;SDS011;40178;53.042;6.406;2022-07-05T11:25:27;2.03;;;0.50;;
54263;SDS011;40178;53.042;6.406;2022-07-05T11:28:05;3.42;;;0.65;;
54263;SDS011;40178;53.042;6.406;2022-07-05T11:33:38;2.55;;;0.50;;
54263;SDS011;40178;53.042;6.406;2022-07-05T11:36:07;2.13;;;0.35;;
54263;SDS011;40178;53.042;6.406;2022-07-05T11:41:30;0.80;;;0.30;;
54263;SDS011;40178;53.042;6.406;2022-07-05T11:43:56;2.60;;;0.30;;
54263;SDS011;40178;53.042;6.406;2022-07-05T11:46:23;3.05;;;0.40;;
54263;SDS011;40178;53.042;6.406;2022-07-05T11:48:51;0.80;;;0.30;;
54263;SDS011;40178;53.042;6.406;2022-07-05T11:51:17;2.92;;;0.45;;
54263;SDS011;40178;53.042;6.406;2022-07-05T11:54:10;1.13;;;0.30;;
54263;SDS011;40178;53.042;6.406;2022-07-05T12:07:26;4.13;;;0.65;;
54263;SDS011;40178;53.042;6.406;2022-07-05T12:09:52;2.35;;;0.60;;
54263;SDS011;40178;53.042;6.406;2022-07-05T12:12:37;2.63;;;0.70;;
54263;SDS011;40178;53.042;6.406;2022-07-05T12:15:10;4.10;;;0.70;;
54263;SDS011;40178;53.042;6.406;2022-07-05T12:17:36;3.65;;;0.70;;
54263;SDS011;40178;53.042;6.406;2022-07-05T12:20:06;1.60;;;0.60;;
54263;SDS011;40178;53.042;6.406;2022-07-05T12:22:34;4.60;;;0.60;;
54263;SDS011;40178;53.042;6.406;2022-07-05T12:25:01;1.58;;;0.50;;
54263;SDS011;40178;53.042;6.406;2022-07-05T12:27:27;3.35;;;0.55;;
54263;SDS011;40178;53.042;6.406;2022-07-05T12:29:54;1.83;;;0.50;;
54263;SDS011;40178;53.042;6.406;2022-07-05T12:32:20;1.60;;;0.60;;
54263;SDS011;40178;53.042;6.406;2022-07-05T12:34:46;1.88;;;0.40;;
54263;SDS011;40178;53.042;6.406;2022-07-05T12:37:19;2.53;;;0.50;;
54263;SDS011;40178;53.042;6.406;2022-07-05T12:39:47;2.00;;;0.47;;
54263;SDS011;40178;53.042;6.406;2022-07-05T12:42:32;2.70;;;0.60;;
54263;SDS011;40178;53.042;6.406;2022-07-05T12:45:11;2.08;;;0.40;;
54263;SDS011;40178;53.042;6.406;2022-07-05T12:47:54;2.03;;;0.38;;
54263;SDS011;40178;53.042;6.406;2022-07-05T12:50:20;1.55;;;0.50;;
54263;SDS011;40178;53.042;6.406;2022-07-05T12:53:05;3.47;;;0.50;;
54263;SDS011;40178;53.042;6.406;2022-07-05T12:55:51;2.92;;;0.50;;
54263;SDS011;40178;53.042;6.406;2022-07-05T12:58:45;2.75;;;0.50;;
54263;SDS011;40178;53.042;6.406;2022-07-05T13:01:25;2.53;;;0.52;;
54263;SDS011;40178;53.042;6.406;2022-07-05T13:07:03;3.92;;;0.57;;
54263;SDS011;40178;53.042;6.406;2022-07-05T13:09:30;1.65;;;0.47;;
54263;SDS011;40178;53.042;6.406;2022-07-05T13:14:31;3.58;;;0.70;;
54263;SDS011;40178;53.042;6.406;2022-07-05T13:16:58;2.97;;;0.70;;
54263;SDS011;40178;53.042;6.406;2022-07-05T13:19:24;2.60;;;0.52;;
54263;SDS011;40178;53.042;6.406;2022-07-05T13:21:50;2.85;;;0.60;;
54263;SDS011;40178;53.042;6.406;2022-07-05T13:24:16;3.10;;;0.70;;
54263;SDS011;40178;53.042;6.406;2022-07-05T13:26:42;2.45;;;0.70;;
54263;SDS011;40178;53.042;6.406;2022-07-05T13:29:08;3.35;;;0.60;;
54263;SDS011;40178;53.042;6.406;2022-07-05T13:31:34;6.93;;;0.90;;
54263;SDS011;40178;53.042;6.406;2022-07-05T13:34:00;3.80;;;0.70;;
54263;SDS011;40178;53.042;6.406;2022-07-05T13:36:26;3.10;;;0.57;;
54263;SDS011;40178;53.042;6.406;2022-07-05T13:38:53;3.03;;;0.75;;
54263;SDS011;40178;53.042;6.406;2022-07-05T13:41:19;2.45;;;0.52;;
54263;SDS011;40178;53.042;6.406;2022-07-05T13:43:45;2.60;;;0.57;;
54263;SDS011;40178;53.042;6.406;2022-07-05T13:46:11;1.67;;;0.57;;
54263;SDS011;40178;53.042;6.406;2022-07-05T13:48:38;1.98;;;0.73;;
54263;SDS011;40178;53.042;6.406;2022-07-05T13:51:04;1.58;;;0.40;;
54263;SDS011;40178;53.042;6.406;2022-07-05T13:53:30;1.83;;;0.50;;
54263;SDS011;40178;53.042;6.406;2022-07-05T13:55:56;2.20;;;0.60;;
54263;SDS011;40178;53.042;6.406;2022-07-05T13:58:22;3.53;;;0.50;;
54263;SDS011;40178;53.042;6.406;2022-07-05T14:00:49;2.38;;;0.55;;
54263;SDS011;40178;53.042;6.406;2022-07-05T14:03:15;2.53;;;0.50;;
54263;SDS011;40178;53.042;6.406;2022-07-05T14:05:41;2.42;;;0.50;;
54263;SDS011;40178;53.042;6.406;2022-07-05T14:08:09;3.42;;;0.60;;
54263;SDS011;40178;53.042;6.406;2022-07-05T14:10:35;2.45;;;0.50;;
54263;SDS011;40178;53.042;6.406;2022-07-05T14:13:01;3.90;;;0.70;;
54263;SDS011;40178;53.042;6.406;2022-07-05T14:15:27;3.25;;;0.70;;
54263;SDS011;40178;53.042;6.406;2022-07-05T14:17:53;3.15;;;0.50;;
54263;SDS011;40178;53.042;6.406;2022-07-05T14:20:19;2.22;;;0.60;;
54263;SDS011;40178;53.042;6.406;2022-07-05T14:22:45;1.58;;;0.45;;
54263;SDS011;40178;53.042;6.406;2022-07-05T14:25:11;3.80;;;0.70;;
54263;SDS011;40178;53.042;6.406;2022-07-05T14:27:37;2.28;;;0.50;;
54263;SDS011;40178;53.042;6.406;2022-07-05T14:30:04;3.25;;;0.50;;
54263;SDS011;40178;53.042;6.406;2022-07-05T14:32:30;2.72;;;0.50;;
54263;SDS011;40178;53.042;6.406;2022-07-05T14:34:56;3.72;;;0.57;;
54263;SDS011;40178;53.042;6.406;2022-07-05T14:37:22;2.17;;;0.60;;
54263;SDS011;40178;53.042;6.406;2022-07-05T14:39:48;1.00;;;0.40;;
54263;SDS011;40178;53.042;6.406;2022-07-05T14:42:15;2.97;;;0.60;;
54263;SDS011;40178;53.042;6.406;2022-07-05T14:44:41;2.88;;;0.68;;
54263;SDS011;40178;53.042;6.406;2022-07-05T14:47:08;4.05;;;0.60;;
54263;SDS011;40178;53.042;6.406;2022-07-05T14:49:35;2.75;;;0.60;;
54263;SDS011;40178;53.042;6.406;2022-07-05T14:52:01;2.42;;;0.50;;
54263;SDS011;40178;53.042;6.406;2022-07-05T14:54:27;2.50;;;0.70;;
54263;SDS011;40178;53.042;6.406;2022-07-05T14:56:53;2.70;;;0.60;;
54263;SDS011;40178;53.042;6.406;2022-07-05T14:59:20;2.33;;;0.70;;
54263;SDS011;40178;53.042;6.406;2022-07-05T15:01:46;0.95;;;0.30;;
54263;SDS011;40178;53.042;6.406;2022-07-05T15:04:12;0.95;;;0.40;;
54263;SDS011;40178;53.042;6.406;2022-07-05T15:06:38;4.40;;;0.80;;
54263;SDS011;40178;53.042;6.406;2022-07-05T15:09:05;2.40;;;0.57;;
54263;SDS011;40178;53.042;6.406;2022-07-05T15:11:32;1.65;;;0.60;;
54263;SDS011;40178;53.042;6.406;2022-07-05T15:13:58;2.65;;;0.73;;
54263;SDS011;40178;53.042;6.406;2022-07-05T15:16:27;1.88;;;0.50;;
54263;SDS011;40178;53.042;6.406;2022-07-05T15:18:53;2.15;;;0.80;;
54263;SDS011;40178;53.042;6.406;2022-07-05T15:21:19;3.42;;;0.60;;
54263;SDS011;40178;53.042;6.406;2022-07-05T15:23:45;2.42;;;0.57;;
54263;SDS011;40178;53.042;6.406;2022-07-05T15:26:11;2.47;;;0.85;;
54263;SDS011;40178;53.042;6.406;2022-07-05T15:28:37;3.05;;;0.70;;
54263;SDS011;40178;53.042;6.406;2022-07-05T15:31:03;3.67;;;0.70;;
54263;SDS011;40178;53.042;6.406;2022-07-05T15:33:29;1.88;;;0.55;;
54263;SDS011;40178;53.042;6.406;2022-07-05T15:35:56;3.00;;;0.50;;
54263;SDS011;40178;53.042;6.406;2022-07-05T15:38:23;1.85;;;0.65;;